Time;durP1;ratioP1;P1;durP2;ratioP2;P2;SDS_P1;SDS_P2;PMS_P1;PMS_P2;Temp;Humidity;BMP_temperature;BMP_pressure;BME280_temperature;BME280_humidity;BME280_pressure;Samples;Min_cycle;Max_cycle;Signal;HPM_P1;HPM_P2
2022/08/22 00:01:51;;;;;;;13.93;7.18;;;;;;;15.52;97.07;101483.91;5045111;28;20368;-81
2022/08/22 00:04:54;;;;;;;11.57;6.77;;;;;;;15.55;97.52;101481.81;5043200;28;20504;-81
2022/08/22 00:07:34;;;;;;;10.20;6.90;;;;;;;15.48;97.19;101471.78;5043828;28;20362;-81
2022/08/22 00:10:02;;;;;;;10.20;6.90;;;;;;;15.46;97.35;101479.38;5043854;28;20041;-81
2022/08/22 00:12:43;;;;;;;12.97;7.37;;;;;;;15.48;97.09;101484.63;5043517;28;20028;-81
2022/08/22 00:15:21;;;;;;;15.07;7.67;;;;;;;15.38;96.92;101482.44;5043863;28;20052;-81
2022/08/22 00:18:17;;;;;;;18.90;8.43;;;;;;;15.36;98.45;101476.34;5042534;28;20036;-81
2022/08/22 00:20:59;;;;;;;16.67;8.03;;;;;;;15.36;98.45;101485.38;5043685;28;20131;-81
2022/08/22 00:23:43;;;;;;;11.03;7.20;;;;;;;15.34;98.62;101481.22;5043653;28;20029;-81
2022/08/22 00:26:25;;;;;;;10.90;7.15;;;;;;;15.34;98.90;101478.50;5044191;28;20160;-81
2022/08/22 00:28:58;;;;;;;10.83;7.40;;;;;;;15.35;99.02;101481.00;5043780;28;20040;-81
2022/08/22 00:31:36;;;;;;;10.68;7.20;;;;;;;15.30;99.39;101480.84;5043653;28;20566;-81
2022/08/22 00:34:17;;;;;;;12.53;7.40;;;;;;;15.31;100.00;101487.13;5043296;28;20037;-81
2022/08/22 00:37:01;;;;;;;13.00;7.57;;;;;;;15.32;100.00;101484.16;5042534;28;20139;-81
2022/08/22 00:39:57;;;;;;;11.52;7.15;;;;;;;15.40;100.00;101484.94;5043618;28;20077;-80
2022/08/22 00:42:28;;;;;;;12.47;8.00;;;;;;;15.31;99.79;101487.97;5042490;28;20623;-81
2022/08/22 00:45:02;;;;;;;13.63;8.27;;;;;;;15.38;100.00;101492.50;5042542;28;20061;-81
2022/08/22 00:47:37;;;;;;;13.30;8.13;;;;;;;15.39;100.00;101486.81;5043601;28;20041;-81
2022/08/22 00:50:20;;;;;;;11.93;7.65;;;;;;;15.36;99.52;101482.63;5043189;28;20033;-81
2022/08/22 00:53:05;;;;;;;10.60;7.32;;;;;;;15.41;99.58;101486.56;5058095;28;20550;-82
2022/08/22 00:55:39;;;;;;;12.15;7.47;;;;;;;15.41;99.96;101486.56;5043147;28;20032;-81
2022/08/22 00:58:32;;;;;;;13.73;7.55;;;;;;;15.45;99.86;101491.38;5042890;28;20044;-81
2022/08/22 01:01:05;;;;;;;11.97;7.70;;;;;;;15.43;99.96;101488.00;5043873;28;20494;-81
2022/08/22 01:03:43;;;;;;;13.48;7.80;;;;;;;15.49;100.00;101491.72;5042144;28;21445;-81
2022/08/22 01:06:26;;;;;;;12.20;7.50;;;;;;;15.43;99.80;101484.47;5042550;28;20081;-81
2022/08/22 01:09:33;;;;;;;11.55;7.93;;;;;;;15.56;99.71;101488.91;5042337;28;20132;-82
2022/08/22 01:12:26;;;;;;;13.30;7.60;;;;;;;15.57;100.00;101493.31;4998371;28;20036;-81
2022/08/22 01:14:57;;;;;;;10.53;7.40;;;;;;;15.57;99.86;101485.97;4985757;28;20046;-81
2022/08/22 01:17:29;;;;;;;15.67;7.83;;;;;;;15.62;99.52;101494.28;5029621;28;20169;-82
2022/08/22 01:20:25;;;;;;;16.90;8.07;;;;;;;15.59;99.51;101486.56;5042189;28;20039;-81
2022/08/22 01:23:06;;;;;;;16.23;8.20;;;;;;;15.62;99.00;101491.56;5058391;28;20036;-81
2022/08/22 01:25:46;;;;;;;12.10;7.83;;;;;;;15.62;98.79;101477.91;5042879;28;20036;-82
2022/08/22 01:28:39;;;;;;;12.17;7.73;;;;;;;15.62;98.95;101485.28;5041785;28;20111;-81
2022/08/22 01:31:37;;;;;;;13.63;7.77;;;;;;;15.62;98.86;101491.56;5042332;28;20032;-81
2022/08/22 01:34:17;;;;;;;14.97;8.27;;;;;;;15.57;98.53;101483.25;5023700;28;20070;-82
2022/08/22 01:36:42;;;;;;;12.27;8.23;;;;;;;15.53;99.10;101473.84;5042300;28;20040;-81
2022/08/22 01:39:29;;;;;;;13.27;8.50;;;;;;;15.57;99.22;101488.72;5042454;28;20574;-82
2022/08/22 01:42:02;;;;;;;14.50;9.03;;;;;;;15.46;98.78;101490.31;5044279;28;20033;-82
2022/08/22 01:44:34;;;;;;;12.67;8.97;;;;;;;15.48;100.00;101479.97;5044164;28;20036;-81
2022/08/22 01:47:11;;;;;;;16.43;9.13;;;;;;;15.49;100.00;101478.91;5041748;28;20021;-81
2022/08/22 01:49:46;;;;;;;13.33;8.97;;;;;;;15.48;100.00;101484.63;5041233;28;20037;-82
2022/08/22 01:52:14;;;;;;;16.40;9.90;;;;;;;15.41;100.00;101479.22;5041565;28;20043;-82
2022/08/22 01:54:47;;;;;;;16.70;8.73;;;;;;;15.45;100.00;101476.88;5042379;28;20044;-82
2022/08/22 01:57:14;;;;;;;11.90;8.73;;;;;;;15.39;100.00;101481.34;5041281;28;20116;-81
2022/08/22 01:59:44;;;;;;;13.07;8.80;;;;;;;15.37;100.00;101475.28;5040080;28;20033;-81
2022/08/22 02:02:22;;;;;;;14.70;8.57;;;;;;;15.37;100.00;101475.28;5042306;28;20382;-81
2022/08/22 02:05:01;;;;;;;11.87;8.47;;;;;;;15.38;100.00;101481.56;5041389;28;20079;-80
2022/08/22 02:07:32;;;;;;;15.47;8.33;;;;;;;15.48;100.00;101476.44;5041247;28;20064;-81
2022/08/22 02:10:03;;;;;;;14.67;8.57;;;;;;;15.47;100.00;101472.84;5040568;28;20205;-82
2022/08/22 02:12:40;;;;;;;14.33;7.90;;;;;;;15.48;100.00;101476.44;5040848;28;20040;-80
2022/08/22 02:15:20;;;;;;;11.47;7.70;;;;;;;15.50;100.00;101475.13;5040938;28;20048;-81
2022/08/22 02:18:11;;;;;;;11.53;7.73;;;;;;;15.58;100.00;101460.31;5041173;28;20036;-81
2022/08/22 02:20:39;;;;;;;11.83;8.20;;;;;;;15.62;100.00;101471.63;5041288;28;20523;-82
2022/08/22 02:23:26;;;;;;;15.17;8.67;;;;;;;15.55;100.00;101468.16;5040740;28;20031;-81
2022/08/22 02:26:01;;;;;;;19.13;9.40;;;;;;;15.59;100.00;101469.34;5041922;28;20036;-81
2022/08/22 02:28:36;;;;;;;16.40;9.60;;;;;;;15.43;100.00;101462.63;5041120;28;20045;-81
2022/08/22 02:31:13;;;;;;;18.90;8.53;;;;;;;15.37;100.00;101467.09;5040718;28;20153;-81
2022/08/22 02:33:48;;;;;;;14.03;9.23;;;;;;;15.29;100.00;101470.97;5041018;28;20036;-81
2022/08/22 02:36:23;;;;;;;15.37;8.73;;;;;;;15.25;100.00;101477.13;5040729;28;20101;-82
2022/08/22 02:39:04;;;;;;;11.27;8.33;;;;;;;15.31;100.00;101471.59;5038850;28;20032;-82
2022/08/22 02:42:02;;;;;;;10.63;8.37;;;;;;;15.28;100.00;101472.03;5040919;28;20646;-81
2022/08/22 02:44:33;;;;;;;16.47;9.67;;;;;;;15.19;100.00;101462.50;5040607;28;20238;-81
2022/08/22 02:47:10;;;;;;;15.50;9.43;;;;;;;15.24;100.00;101465.34;5040817;28;21341;-81
2022/08/22 02:49:57;;;;;;;14.90;9.70;;;;;;;15.18;100.00;101460.81;5040261;28;20036;-81
2022/08/22 02:52:29;;;;;;;16.50;9.50;;;;;;;15.22;100.00;101459.31;5041499;28;20037;-81
2022/08/22 02:55:18;;;;;;;18.40;10.00;;;;;;;15.25;100.00;101458.84;5041127;28;20033;-81
2022/08/22 02:57:48;;;;;;;12.23;9.20;;;;;;;15.34;100.00;101459.38;5041074;28;20029;-81
2022/08/22 03:00:26;;;;;;;12.60;9.03;;;;;;;15.33;100.00;101452.25;5041038;28;20036;-81
2022/08/22 03:02:51;;;;;;;14.73;9.30;;;;;;;15.38;100.00;101459.72;5041217;28;20793;-81
2022/08/22 03:05:19;;;;;;;15.57;9.27;;;;;;;15.34;100.00;101452.00;5040778;28;20211;-81
2022/08/22 03:07:55;;;;;;;16.00;10.13;;;;;;;15.32;100.00;101450.56;5042519;28;20041;-81
2022/08/22 03:10:35;;;;;;;16.60;9.80;;;;;;;15.41;100.00;101451.06;5040912;28;20036;-81
2022/08/22 03:13:15;;;;;;;13.53;9.93;;;;;;;15.35;100.00;101448.22;5041018;28;20132;-81
2022/08/22 03:15:57;;;;;;;15.10;10.37;;;;;;;15.31;100.00;101457.94;5040748;28;20602;-81
2022/08/22 03:18:42;;;;;;;16.47;10.23;;;;;;;15.25;100.00;101464.28;5042018;28;20037;-81
2022/08/22 03:21:10;;;;;;;16.70;10.20;;;;;;;15.27;100.00;101453.16;5040363;28;20032;-81
2022/08/22 03:23:45;;;;;;;16.10;9.97;;;;;;;15.28;100.00;101443.91;5042019;28;20582;-81
2022/08/22 03:26:49;;;;;;;14.50;9.30;;;;;;;15.39;100.00;101450.50;5040872;28;20032;-81
2022/08/22 03:29:23;;;;;;;15.23;9.20;;;;;;;15.39;100.00;101445.03;5015451;28;20060;-81
2022/08/22 03:32:18;;;;;;;15.20;9.63;;;;;;;15.43;100.00;101447.06;5040937;28;20037;-81
2022/08/22 03:34:58;;;;;;;15.65;9.60;;;;;;;15.46;100.00;101440.31;5043944;28;20142;-82
2022/08/22 03:37:26;;;;;;;11.83;9.07;;;;;;;15.42;100.00;101436.38;5045596;28;20041;-82
2022/08/22 03:39:59;;;;;;;12.57;9.03;;;;;;;15.41;100.00;101443.75;5044041;28;21408;-81
2022/08/22 03:42:38;;;;;;;14.60;9.03;;;;;;;15.45;100.00;101439.47;5044981;28;20520;-81
2022/08/22 03:45:18;;;;;;;14.40;8.70;;;;;;;15.40;100.00;101430.31;5044241;28;20032;-82
2022/08/22 03:47:58;;;;;;;13.80;8.33;;;;;;;15.48;100.00;101430.00;5044142;28;20548;-81
2022/08/22 03:50:54;;;;;;;12.40;8.50;;;;;;;15.42;100.00;101439.94;5044208;28;20036;-81
2022/08/22 03:53:41;;;;;;;14.80;8.83;;;;;;;15.22;100.00;101432.00;5043670;28;20071;-82
2022/08/22 03:56:12;;;;;;;14.00;9.00;;;;;;;15.25;100.00;101431.53;5043078;28;20512;-81
2022/08/22 03:58:56;;;;;;;16.47;8.60;;;;;;;15.26;100.00;101427.75;5045989;28;20045;-81
2022/08/22 04:02:00;;;;;;;14.30;8.50;;;;;;;15.27;100.00;101429.44;5043531;28;20070;-81
2022/08/22 04:05:13;;;;;;;11.80;8.70;;;;;;;15.17;100.00;101429.94;5043933;28;20040;-81
2022/08/22 04:08:03;;;;;;;11.77;8.47;;;;;;;15.16;100.00;101427.44;5043916;28;20048;-81
2022/08/22 04:10:57;;;;;;;12.20;8.30;;;;;;;15.07;100.00;101426.94;5043347;28;20172;-81
2022/08/22 04:13:47;;;;;;;14.05;8.70;;;;;;;14.98;100.00;101431.84;5044268;28;20317;-81
2022/08/22 04:16:41;;;;;;;12.17;8.37;;;;;;;14.94;100.00;101437.97;5043410;28;20053;-81
2022/08/22 04:19:22;;;;;;;13.03;7.90;;;;;;;14.88;100.00;101434.28;5057765;28;20036;-81
2022/08/22 04:21:53;;;;;;;13.23;8.80;;;;;;;14.93;100.00;101441.75;5044278;28;20058;-81
2022/08/22 04:24:46;;;;;;;14.47;8.40;;;;;;;14.88;100.00;101449.78;5043412;28;20037;-81
2022/08/22 04:27:23;;;;;;;12.70;7.93;;;;;;;14.80;100.00;101442.75;5044524;28;20091;-81
2022/08/22 04:30:21;;;;;;;13.03;7.83;;;;;;;14.76;100.00;101442.34;5042358;28;20043;-81
2022/08/22 04:32:57;;;;;;;13.10;8.00;;;;;;;14.76;100.00;101444.25;5043324;28;20044;-81
2022/08/22 04:35:31;;;;;;;13.63;8.63;;;;;;;14.68;100.00;101448.94;5043615;28;20032;-81
2022/08/22 04:38:10;;;;;;;12.38;8.13;;;;;;;14.71;100.00;101438.66;5043713;28;20437;-80
2022/08/22 04:40:45;;;;;;;12.13;7.73;;;;;;;14.65;100.00;101441.22;5042961;28;20476;-82
2022/08/22 04:43:18;;;;;;;12.00;7.70;;;;;;;14.62;100.00;101433.44;5043515;28;20037;-82
2022/08/22 04:46:07;;;;;;;11.97;7.93;;;;;;;14.63;100.00;101443.34;5058763;28;20037;-82
2022/08/22 04:48:46;;;;;;;13.20;8.70;;;;;;;14.66;100.00;101442.03;5043818;28;20044;-81
2022/08/22 04:51:26;;;;;;;11.93;8.77;;;;;;;14.62;100.00;101438.91;5042605;28;20075;-81
2022/08/22 04:54:17;;;;;;;13.90;8.90;;;;;;;14.56;100.00;101447.97;5042743;28;20033;-81
2022/08/22 04:57:23;;;;;;;14.37;9.50;;;;;;;14.50;100.00;101444.25;5042492;28;20024;-82
2022/08/22 04:59:49;;;;;;;14.03;9.23;;;;;;;14.47;100.00;101461.06;5006832;28;20089;-81
2022/08/22 05:02:24;;;;;;;13.30;8.97;;;;;;;14.47;100.00;101465.66;5058024;28;20036;-81
2022/08/22 05:05:02;;;;;;;13.63;9.00;;;;;;;14.46;100.00;101464.00;5040748;28;20041;-81
2022/08/22 05:07:34;;;;;;;15.53;9.47;;;;;;;14.48;100.00;101468.19;5043445;28;20119;-81
2022/08/22 05:10:31;;;;;;;19.13;10.63;;;;;;;14.56;100.00;101463.50;5041716;28;20089;-81
2022/08/22 05:13:01;;;;;;;16.07;9.83;;;;;;;14.62;100.00;101468.03;5036833;28;20051;-81
2022/08/22 05:15:35;;;;;;;15.20;9.90;;;;;;;14.67;100.00;101460.06;5057374;28;20547;-81
2022/08/22 05:18:08;;;;;;;15.48;9.20;;;;;;;14.72;100.00;101462.13;5042460;28;20024;-81
2022/08/22 05:20:36;;;;;;;15.23;9.83;;;;;;;14.82;100.00;101465.16;5041764;28;20210;-81
2022/08/22 05:23:29;;;;;;;14.77;9.60;;;;;;;14.84;100.00;101465.78;5043100;28;20039;-81
2022/08/22 05:26:00;;;;;;;15.43;9.87;;;;;;;14.86;100.00;101458.19;5036802;28;20041;-81
2022/08/22 05:28:42;;;;;;;16.33;10.30;;;;;;;14.91;100.00;101466.56;5041789;28;20035;-81
2022/08/22 05:31:15;;;;;;;17.20;10.40;;;;;;;14.97;100.00;101471.13;5042149;28;20033;-81
2022/08/22 05:33:51;;;;;;;16.40;9.73;;;;;;;15.02;100.00;101473.16;5042464;28;20052;-81
2022/08/22 05:36:35;;;;;;;13.67;9.90;;;;;;;15.09;100.00;101478.56;5039990;28;20491;-81
2022/08/22 05:39:10;;;;;;;16.58;10.40;;;;;;;15.20;100.00;101480.50;5043459;28;20040;-81
2022/08/22 05:41:37;;;;;;;16.70;9.17;;;;;;;15.30;100.00;101477.25;5042594;28;20365;-81
2022/08/22 05:44:06;;;;;;;16.57;10.20;;;;;;;15.33;100.00;101480.38;5041001;28;20037;-81
2022/08/22 05:46:43;;;;;;;17.00;9.60;;;;;;;15.41;100.00;101481.97;5042376;28;20044;-81
2022/08/22 05:49:26;;;;;;;15.10;9.30;;;;;;;15.48;100.00;101479.97;5041062;28;20492;-81
2022/08/22 05:52:17;;;;;;;13.40;9.57;;;;;;;15.53;100.00;101480.13;5040460;28;20585;-81
2022/08/22 05:54:54;;;;;;;14.23;9.60;;;;;;;15.57;100.00;101485.97;5040848;28;20028;-82
2022/08/22 05:57:27;;;;;;;15.80;10.13;;;;;;;15.63;100.00;101474.13;5041058;28;20039;-81
2022/08/22 06:00:02;;;;;;;16.23;10.53;;;;;;;15.67;100.00;101479.97;5042239;28;20033;-81
2022/08/22 06:02:52;;;;;;;17.07;10.87;;;;;;;15.69;100.00;101473.22;5041450;28;20094;-81
2022/08/22 06:05:24;;;;;;;16.13;10.60;;;;;;;15.66;100.00;101476.38;5040883;28;20047;-81
2022/08/22 06:07:57;;;;;;;17.43;11.60;;;;;;;15.78;100.00;101481.91;5041700;28;20033;-81
2022/08/22 06:10:41;;;;;;;18.10;11.60;;;;;;;15.83;100.00;101481.25;5041456;28;20036;-81
2022/08/22 06:13:17;;;;;;;18.35;12.90;;;;;;;15.82;100.00;101482.31;5041393;28;20560;-81
2022/08/22 06:15:58;;;;;;;20.77;12.80;;;;;;;15.93;100.00;101483.44;5040898;28;20065;-81
2022/08/22 06:18:27;;;;;;;18.90;12.90;;;;;;;15.98;100.00;101483.53;5041523;28;20177;-81
2022/08/22 06:20:57;;;;;;;17.20;11.80;;;;;;;16.05;100.00;101487.03;5041188;28;20033;-82
2022/08/22 06:23:25;;;;;;;19.50;12.17;;;;;;;16.18;100.00;101492.31;5041248;28;20033;-82
2022/08/22 06:25:54;;;;;;;18.97;11.80;;;;;;;16.24;100.00;101497.88;5040388;28;20384;-81
2022/08/22 06:28:25;;;;;;;22.03;12.20;;;;;;;16.29;100.00;101498.03;5041083;28;20440;-81
2022/08/22 06:30:53;;;;;;;17.50;11.73;;;;;;;16.37;100.00;101494.94;5026635;28;20029;-81
2022/08/22 06:33:26;;;;;;;19.57;11.30;;;;;;;16.50;100.00;101502.13;5040272;28;20048;-81
2022/08/22 06:38:56;;;;;;;17.47;11.63;;;;;;;16.74;100.00;101497.50;5041456;28;20060;-81
2022/08/22 06:41:26;;;;;;;19.30;12.20;;;;;;;16.78;100.00;101501.44;5040237;28;20158;-81
2022/08/22 06:43:53;;;;;;;21.50;12.40;;;;;;;16.81;100.00;101502.84;5041719;28;20035;-81
2022/08/22 06:46:22;;;;;;;19.83;12.20;;;;;;;16.80;100.00;101503.94;5039278;28;20041;-81
2022/08/22 06:48:48;;;;;;;19.17;12.27;;;;;;;16.88;100.00;101509.06;5040524;28;20525;-81
2022/08/22 06:51:17;;;;;;;18.60;11.87;;;;;;;16.82;100.00;101501.78;5040202;28;20025;-81
2022/08/22 06:53:46;;;;;;;17.97;12.27;;;;;;;16.87;100.00;101501.91;5040896;28;20028;-81
2022/08/22 06:56:16;;;;;;;18.90;11.80;;;;;;;16.95;100.00;101506.22;5040085;28;20035;-81
2022/08/22 06:58:44;;;;;;;19.43;11.73;;;;;;;16.99;100.00;101505.50;5040747;28;20478;-82
2022/08/22 07:01:17;;;;;;;18.97;12.37;;;;;;;17.02;100.00;101506.94;5056236;28;21402;-81
2022/08/22 07:04:04;;;;;;;19.90;12.33;;;;;;;17.11;100.00;101510.13;5041326;28;20101;-81
2022/08/22 07:06:44;;;;;;;21.80;13.53;;;;;;;17.16;100.00;101511.09;5040309;28;20423;-81
2022/08/22 07:09:28;;;;;;;20.87;14.53;;;;;;;17.18;100.00;101525.38;5041509;28;20086;-81
2022/08/22 07:11:56;;;;;;;21.10;14.15;;;;;;;17.19;100.00;101528.94;5045092;28;20024;-83
2022/08/22 07:14:28;;;;;;;22.47;14.67;;;;;;;17.18;100.00;101522.63;5045225;28;20032;-82
2022/08/22 07:16:59;;;;;;;23.33;15.10;;;;;;;17.30;100.00;101525.34;5043315;28;20370;-84
2022/08/22 07:19:32;;;;;;;21.80;13.57;;;;;;;17.34;100.00;101515.59;5045422;28;20555;-83
2022/08/22 07:22:09;;;;;;;21.50;13.53;;;;;;;17.45;99.96;101521.25;5044629;28;20062;-83
2022/08/22 07:24:35;;;;;;;18.83;12.43;;;;;;;17.51;98.22;101521.13;5043876;28;20033;-83
2022/08/22 07:27:12;;;;;;;21.30;13.83;;;;;;;17.54;98.91;101520.66;5042705;28;20036;-83
2022/08/22 07:29:56;;;;;;;19.73;12.90;;;;;;;17.61;97.81;101514.22;5042976;28;20033;-83
2022/08/22 07:32:44;;;;;;;21.83;13.65;;;;;;;17.69;97.96;101511.09;5043851;28;20143;-84
2022/08/22 07:35:32;;;;;;;19.40;13.97;;;;;;;17.74;98.03;101511.19;5043089;28;20033;-84
2022/08/22 07:38:26;;;;;;;19.83;14.13;;;;;;;17.77;98.44;101512.63;5043138;28;20040;-83
2022/08/22 07:41:17;;;;;;;21.85;13.13;;;;;;;17.87;96.31;101507.34;5043343;28;20047;-84
2022/08/22 07:43:53;;;;;;;21.90;13.57;;;;;;;17.97;96.40;101510.28;5043532;28;20029;-83
2022/08/22 07:46:36;;;;;;;23.38;14.18;;;;;;;18.03;96.73;101506.59;5043372;28;20079;-84
2022/08/22 07:49:16;;;;;;;20.30;13.85;;;;;;;18.13;96.51;101505.09;5042531;28;20385;-84
2022/08/22 07:51:54;;;;;;;23.45;13.93;;;;;;;18.25;96.51;101503.13;5042482;28;20384;-84
2022/08/22 07:54:33;;;;;;;23.05;13.63;;;;;;;18.41;94.58;101504.22;5042763;28;21326;-84
2022/08/22 07:57:06;;;;;;;18.95;13.60;;;;;;;18.39;93.93;101504.47;5043266;28;20064;-84
2022/08/22 07:59:35;;;;;;;23.20;14.02;;;;;;;18.62;94.62;101497.16;5042927;28;20057;-83
2022/08/22 08:02:09;;;;;;;22.83;13.98;;;;;;;18.82;92.61;101501.28;5042534;28;20045;-83
2022/08/22 08:04:37;;;;;;;23.65;13.15;;;;;;;19.14;91.24;101496.03;5043491;28;20584;-85
2022/08/22 08:07:07;;;;;;;18.00;12.70;;;;;;;19.42;89.71;101502.44;5041027;28;20067;-85
2022/08/22 08:09:39;;;;;;;19.13;12.25;;;;;;;19.73;87.59;101497.28;5042034;28;20067;-84
2022/08/22 08:12:09;;;;;;;19.67;12.05;;;;;;;19.94;86.51;101495.66;5042729;28;20433;-85
2022/08/22 08:14:38;;;;;;;18.52;12.30;;;;;;;20.12;84.57;101488.94;5042724;28;20090;-84
2022/08/22 08:17:20;;;;;;;21.02;11.77;;;;;;;20.48;83.95;101497.53;5041659;28;20112;-84
2022/08/22 08:19:46;;;;;;;15.82;10.70;;;;;;;20.87;81.99;101493.69;5045056;28;20845;-83
2022/08/22 08:22:18;;;;;;;18.25;10.07;;;;;;;21.06;79.76;101486.63;5042338;28;20037;-83
2022/08/22 08:24:45;;;;;;;16.23;9.32;;;;;;;21.39;78.43;101481.84;5042787;28;20078;-85
2022/08/22 08:30:28;;;;;;;18.15;9.68;;;;;;;21.89;74.72;101474.03;5043627;28;20523;-84
2022/08/22 08:32:56;;;;;;;16.58;8.93;;;;;;;22.03;73.12;101474.34;5034915;28;20053;-85
2022/08/22 08:35:34;;;;;;;16.33;9.23;;;;;;;22.18;73.86;101475.44;5042369;28;20119;-83
2022/08/22 08:38:20;;;;;;;15.27;9.02;;;;;;;22.41;72.17;101474.09;5041831;28;20032;-86
2022/08/22 08:40:54;;;;;;;16.40;9.02;;;;;;;22.56;71.00;101481.53;5043259;28;20132;-84
2022/08/22 08:43:52;;;;;;;15.40;8.15;;;;;;;23.12;69.29;101477.84;5041451;28;20037;-84
2022/08/22 08:46:50;;;;;;;16.05;8.18;;;;;;;23.33;68.91;101483.34;5041121;28;20040;-85
2022/08/22 08:49:15;;;;;;;14.85;8.07;;;;;;;23.22;64.89;101477.84;5028412;28;20127;-84
2022/08/22 08:51:49;;;;;;;17.80;7.05;;;;;;;23.98;62.77;101477.75;5042707;28;20025;-84
2022/08/22 08:54:35;;;;;;;16.83;7.55;;;;;;;24.22;64.26;101475.09;5041731;28;20037;-84
2022/08/22 08:57:28;;;;;;;17.10;6.80;;;;;;;24.45;62.33;101480.97;5042289;28;20029;-85
2022/08/22 09:00:11;;;;;;;13.68;6.40;;;;;;;24.82;61.75;101481.50;5043364;28;20158;-84
2022/08/22 09:03:07;;;;;;;16.27;6.57;;;;;;;25.18;60.42;101481.09;5056749;28;20048;-85
2022/08/22 09:06:01;;;;;;;13.20;6.15;;;;;;;25.51;55.52;101479.31;5042520;28;20073;-83
2022/08/22 09:08:56;;;;;;;13.85;6.30;;;;;;;25.35;58.30;101470.38;5042506;28;20036;-84
2022/08/22 09:11:33;;;;;;;12.02;5.47;;;;;;;25.02;55.77;101461.06;5042444;28;20060;-85
2022/08/22 09:14:21;;;;;;;11.43;5.28;;;;;;;25.03;56.54;101468.25;5041959;28;20131;-85
2022/08/22 09:17:35;;;;;;;11.35;4.50;;;;;;;25.51;56.31;101475.72;5041869;28;20048;-86
2022/08/22 09:20:19;;;;;;;14.43;6.00;;;;;;;25.36;55.12;101469.25;5042800;28;20137;-84
2022/08/22 09:22:45;;;;;;;;;;;;;;;25.82;58.05;101472.53;5042368;28;20029;-84
2022/08/22 09:25:34;;;;;;;13.43;5.85;;;;;;;25.22;57.08;101462.75;5042758;28;19939;-83
2022/08/22 09:28:06;;;;;;;10.40;5.38;;;;;;;25.06;52.00;101471.28;5040517;28;20041;-87
2022/08/22 09:30:50;;;;;;;10.95;5.30;;;;;;;25.03;53.45;101463.53;5041940;28;20420;-84
2022/08/22 09:33:20;;;;;;;9.40;4.55;;;;;;;24.72;50.61;101461.06;5041007;28;20040;-86
2022/08/22 09:35:57;;;;;;;9.95;4.90;;;;;;;24.60;51.19;101468.94;5042009;28;20059;-86
2022/08/22 09:38:38;;;;;;;8.73;4.93;;;;;;;24.58;53.62;101468.41;5042503;28;20041;-86
2022/08/22 09:41:42;;;;;;;12.90;5.60;;;;;;;24.50;53.61;101469.84;5041339;28;20412;-84
2022/08/22 09:44:36;;;;;;;14.30;6.20;;;;;;;24.27;54.66;101469.53;5041028;28;20067;-85
2022/08/22 09:47:19;;;;;;;13.88;5.20;;;;;;;24.06;55.10;101462.50;5041794;28;20055;-85
2022/08/22 09:50:47;;;;;;;12.73;5.28;;;;;;;24.24;55.16;101459.00;5041849;28;20052;-86
2022/08/22 09:53:56;;;;;;;12.02;4.95;;;;;;;24.07;55.04;101464.13;5018408;28;20115;-85
2022/08/22 09:56:35;;;;;;;16.50;5.15;;;;;;;23.89;55.24;101462.88;5040594;28;20377;-85
2022/08/22 09:59:41;;;;;;;11.35;5.28;;;;;;;24.08;55.24;101455.56;5039877;28;20561;-85
2022/08/22 10:02:12;;;;;;;10.00;4.47;;;;;;;23.94;55.79;101454.53;5019719;28;20041;-84
2022/08/22 10:04:41;;;;;;;12.05;4.65;;;;;;;23.96;53.89;101446.75;5042069;28;20040;-85
2022/08/22 10:07:29;;;;;;;12.43;4.43;;;;;;;24.19;55.85;101455.44;5042617;28;20032;-86
2022/08/22 10:10:10;;;;;;;10.55;4.90;;;;;;;23.99;51.95;101437.06;5041854;28;20401;-86
2022/08/22 10:12:49;;;;;;;12.38;5.35;;;;;;;24.11;53.01;101445.81;5041872;28;20119;-84
2022/08/22 10:15:34;;;;;;;13.48;4.93;;;;;;;24.22;51.54;101446.56;5040912;28;20084;-85
2022/08/22 10:18:18;;;;;;;10.68;4.15;;;;;;;24.04;50.72;101446.16;5042248;28;20029;-85
2022/08/22 10:21:00;;;;;;;;;;;;;;;24.46;53.63;101445.81;5027426;28;20254;-84
2022/08/22 10:23:36;;;;;;;13.10;4.93;;;;;;;24.22;52.11;101446.56;5040841;28;19968;-85
2022/08/22 10:26:19;;;;;;;13.02;5.55;;;;;;;24.31;52.94;101444.81;5041973;28;20028;-87
2022/08/22 10:28:56;;;;;;;13.30;5.38;;;;;;;24.37;52.58;101434.53;5043691;28;20047;-86
2022/08/22 10:31:55;;;;;;;10.73;3.83;;;;;;;24.54;51.69;101439.66;5041155;28;20040;-85
2022/08/22 10:34:28;;;;;;;9.40;3.50;;;;;;;24.38;49.73;101438.94;5040001;28;20040;-86
2022/08/22 10:37:29;;;;;;;11.40;3.88;;;;;;;24.55;50.47;101441.31;5040733;28;20037;-85
2022/08/22 10:40:06;;;;;;;13.10;4.10;;;;;;;24.66;50.08;101431.78;5040485;28;20032;-87
2022/08/22 10:42:46;;;;;;;8.80;3.50;;;;;;;24.74;50.50;101433.09;5039372;28;20111;-85
2022/08/22 10:45:33;;;;;;;7.18;3.47;;;;;;;25.02;51.47;101436.91;5040472;28;20160;-84
2022/08/22 10:48:05;;;;;;;12.13;3.65;;;;;;;25.04;48.48;101431.09;5032122;28;20075;-84
2022/08/22 10:50:35;;;;;;;9.35;3.40;;;;;;;25.09;49.05;101433.78;5040849;28;20071;-84
2022/08/22 10:53:29;;;;;;;9.45;3.92;;;;;;;25.41;48.82;101424.81;5039656;28;20103;-86
2022/08/22 10:56:02;;;;;;;10.00;3.80;;;;;;;25.48;48.83;101423.63;5038327;28;20392;-85
2022/08/22 10:58:35;;;;;;;11.10;3.45;;;;;;;25.89;47.01;101417.44;5039941;28;20037;-84
2022/08/22 11:01:03;;;;;;;8.85;3.00;;;;;;;25.86;46.43;101426.38;5040593;28;20040;-85
2022/08/22 11:03:54;;;;;;;8.90;3.03;;;;;;;25.83;45.93;101415.91;5055213;28;20041;-83
2022/08/22 11:06:42;;;;;;;11.10;3.40;;;;;;;25.86;46.40;101412.50;5038211;28;20222;-86
2022/08/22 11:09:17;;;;;;;8.70;3.05;;;;;;;25.92;45.09;101416.84;5039393;28;20043;-86
2022/08/22 11:12:11;;;;;;;8.30;2.70;;;;;;;25.95;45.19;101405.16;5037883;28;20032;-84
2022/08/22 11:15:12;;;;;;;7.53;2.90;;;;;;;26.10;45.45;101415.22;5032168;28;20056;-86
2022/08/22 11:18:19;;;;;;;7.45;2.60;;;;;;;26.53;43.51;101414.16;5033098;28;20409;-85
2022/08/22 11:20:57;;;;;;;7.55;2.70;;;;;;;26.26;42.41;101416.59;5034241;28;20039;-86
2022/08/22 11:24:00;;;;;;;10.75;2.72;;;;;;;26.35;44.24;101408.38;5034940;28;20043;-85
2022/08/22 11:26:49;;;;;;;7.78;2.83;;;;;;;26.23;43.29;101410.81;5035975;28;20058;-86
2022/08/22 11:29:31;;;;;;;8.23;2.90;;;;;;;26.02;45.07;101405.59;5039243;28;20041;-84
2022/08/22 11:32:11;;;;;;;8.88;2.63;;;;;;;25.99;43.44;101406.19;5039763;28;20040;-86
2022/08/22 11:34:48;;;;;;;9.43;2.60;;;;;;;26.04;43.60;101408.88;5039765;28;20628;-83
2022/08/22 11:37:26;;;;;;;7.07;2.40;;;;;;;26.10;42.72;101404.09;5040354;28;20060;-86
2022/08/22 11:40:25;;;;;;;9.75;2.90;;;;;;;26.20;46.09;101403.91;5039883;28;20061;-84
2022/08/22 11:43:34;;;;;;;6.18;2.50;;;;;;;25.99;46.00;101395.09;5039392;28;20032;-84
2022/08/22 11:46:14;;;;;;;9.60;2.63;;;;;;;26.08;46.54;101398.00;5040447;28;20325;-86
2022/08/22 11:48:46;;;;;;;6.88;2.38;;;;;;;25.95;44.66;101394.84;5039369;28;20471;-86
2022/08/22 11:51:33;;;;;;;7.75;2.63;;;;;;;25.58;44.37;101398.50;5039833;28;20037;-84
2022/08/22 11:54:25;;;;;;;6.88;2.47;;;;;;;25.72;44.40;101393.03;5039302;28;20560;-88
2022/08/22 11:57:05;;;;;;;7.93;2.55;;;;;;;25.72;44.28;101391.06;5044044;28;20036;-87
2022/08/22 12:00:11;;;;;;;7.13;2.42;;;;;;;25.80;44.04;101395.13;5042236;28;20071;-85
2022/08/22 12:02:55;;;;;;;9.10;2.72;;;;;;;25.71;43.90;101392.19;5042993;28;20086;-87
2022/08/22 12:05:23;;;;;;;;;;;;;;;26.00;44.82;101396.72;5042475;28;20040;-86
2022/08/22 12:08:28;;;;;;;10.98;3.03;;;;;;;25.74;44.73;101401.88;5043040;28;20055;-87
2022/08/22 12:11:06;;;;;;;10.55;2.60;;;;;;;25.59;46.52;101397.38;5013773;28;20049;-84
2022/08/22 12:14:01;;;;;;;9.40;2.78;;;;;;;25.37;46.17;101400.75;5042750;28;20036;-86
2022/08/22 12:16:26;;;;;;;8.98;3.08;;;;;;;25.12;48.35;101402.72;5042221;28;20136;-86
2022/08/22 12:19:09;;;;;;;10.20;3.25;;;;;;;25.02;46.55;101394.53;5043219;28;20044;-86